Time;durP1;ratioP1;P1;durP2;ratioP2;P2;SDS_P1;SDS_P2;PMS_P1;PMS_P2;Temp;Humidity;BMP_temperature;BMP_pressure;BME280_temperature;BME280_humidity;BME280_pressure;Samples;Min_cycle;Max_cycle;Signal;HPM_P1;HPM_P2
2022/08/07 00:00:22;;;;;;;12.30;7.15;;;12.60;99.90;;;;;;5043709;28;20048;-72
2022/08/07 00:02:47;;;;;;;7.45;6.53;;;12.60;99.90;;;;;;5050103;28;20065;-71
2022/08/07 00:05:13;;;;;;;8.43;6.15;;;12.60;99.90;;;;;;5047930;28;20049;-71
2022/08/07 00:07:39;;;;;;;6.97;6.15;;;12.50;99.90;;;;;;5042073;28;20042;-71
2022/08/07 00:10:05;;;;;;;6.18;5.18;;;12.50;99.90;;;;;;5045652;28;20056;-70
2022/08/07 00:12:31;;;;;;;7.40;5.57;;;12.50;99.90;;;;;;5044939;28;20045;-71
2022/08/07 00:14:57;;;;;;;17.83;7.43;;;12.50;99.90;;;;;;5047357;28;20051;-71
2022/08/07 00:17:23;;;;;;;10.45;6.65;;;12.50;99.90;;;;;;5048014;28;20170;-72
2022/08/07 00:19:49;;;;;;;7.95;6.07;;;12.50;99.90;;;;;;5046613;28;20087;-74
2022/08/07 00:22:15;;;;;;;6.50;5.82;;;12.40;99.90;;;;;;5040805;28;20093;-71
2022/08/07 00:24:41;;;;;;;8.82;5.90;;;12.30;99.90;;;;;;5030210;28;20045;-70
2022/08/07 00:27:06;;;;;;;7.22;6.10;;;12.20;99.90;;;;;;5046870;28;20431;-71
2022/08/07 00:29:32;;;;;;;9.52;5.68;;;12.10;99.90;;;;;;5048549;28;20037;-70
2022/08/07 00:31:58;;;;;;;12.00;6.97;;;12.20;99.90;;;;;;5047415;28;20040;-71
2022/08/07 00:34:27;;;;;;;6.47;5.00;;;12.20;99.90;;;;;;5049228;28;20452;-71
2022/08/07 00:36:53;;;;;;;8.57;5.60;;;12.10;99.90;;;;;;5048232;28;20047;-71
2022/08/07 00:39:19;;;;;;;6.75;5.40;;;12.20;99.90;;;;;;5048778;28;20040;-73
2022/08/07 00:41:57;;;;;;;8.10;6.55;;;12.20;99.90;;;;;;5041154;28;20037;-71
2022/08/07 00:44:24;;;;;;;8.15;5.90;;;12.30;99.90;;;;;;5028977;28;20573;-70
2022/08/07 00:46:50;;;;;;;9.30;5.68;;;12.40;99.90;;;;;;5040396;28;20041;-71
2022/08/07 00:49:16;;;;;;;6.18;5.45;;;12.30;99.90;;;;;;5042299;28;20048;-71
2022/08/07 00:51:42;;;;;;;7.70;5.32;;;12.30;99.90;;;;;;5047100;28;20041;-71
2022/08/07 00:54:08;;;;;;;7.22;5.22;;;12.30;99.90;;;;;;5063131;28;20094;-71
2022/08/07 00:56:34;;;;;;;7.43;6.00;;;12.30;99.90;;;;;;5047025;28;20205;-70
2022/08/07 00:59:01;;;;;;;6.80;5.38;;;12.30;99.90;;;;;;5028916;28;20045;-71
2022/08/07 01:01:27;;;;;;;6.78;6.07;;;12.20;99.90;;;;;;5034892;28;20045;-71
2022/08/07 01:03:53;;;;;;;6.85;5.68;;;12.20;99.90;;;;;;5048609;28;20447;-71
2022/08/07 01:06:19;;;;;;;9.43;5.93;;;12.10;99.90;;;;;;5046004;28;20047;-73
2022/08/07 01:08:46;;;;;;;9.63;7.05;;;12.00;99.90;;;;;;5047504;28;20451;-71
2022/08/07 01:11:13;;;;;;;8.68;5.63;;;12.00;99.90;;;;;;5046896;28;20041;-71
2022/08/07 01:13:40;;;;;;;11.35;5.63;;;12.00;99.90;;;;;;5045726;28;20381;-71
2022/08/07 01:16:06;;;;;;;8.15;6.15;;;12.00;99.90;;;;;;5047010;28;20111;-70
2022/08/07 01:18:33;;;;;;;7.45;6.20;;;12.00;99.90;;;;;;5044506;28;20052;-70
2022/08/07 01:21:18;;;;;;;8.52;5.03;;;12.00;99.90;;;;;;5057058;28;20052;-70
2022/08/07 01:23:46;;;;;;;8.98;5.97;;;12.00;99.90;;;;;;5040585;28;20055;-70
2022/08/07 01:26:14;;;;;;;7.50;5.43;;;12.00;99.90;;;;;;5062283;28;20056;-72
2022/08/07 01:28:42;;;;;;;6.93;6.22;;;12.00;99.90;;;;;;5048412;28;20064;-70
2022/08/07 01:31:08;;;;;;;7.50;5.60;;;12.00;99.90;;;;;;5044794;28;20597;-70
2022/08/07 01:33:34;;;;;;;7.38;4.80;;;12.00;99.90;;;;;;5045025;28;20850;-71
2022/08/07 01:36:01;;;;;;;8.18;5.35;;;12.00;99.90;;;;;;5045861;28;20803;-70
2022/08/07 01:38:28;;;;;;;9.13;6.22;;;11.90;99.90;;;;;;5046575;28;20124;-70
2022/08/07 01:40:57;;;;;;;6.38;5.38;;;11.90;99.90;;;;;;5047267;28;20041;-70
2022/08/07 01:43:24;;;;;;;6.90;5.40;;;11.90;99.90;;;;;;5034453;28;20040;-70
2022/08/07 01:48:19;;;;;;;6.15;4.55;;;11.90;99.90;;;;;;5064137;28;20067;-73
2022/08/07 01:50:51;;;;;;;5.32;4.22;;;11.80;99.90;;;;;;5068303;28;20048;-74
2022/08/07 01:53:20;;;;;;;9.70;4.97;;;11.80;99.90;;;;;;5060419;28;20064;-74
2022/08/07 01:55:50;;;;;;;7.80;4.93;;;11.80;99.90;;;;;;5049877;28;20064;-72
2022/08/07 01:58:18;;;;;;;;;;;11.50;99.90;;;;;;5063808;28;20052;-74
2022/08/07 02:00:48;;;;;;;6.47;5.63;;;11.30;99.90;;;;;;5067367;28;19924;-74
2022/08/07 02:03:17;;;;;;;7.97;4.60;;;11.40;99.90;;;;;;5067275;28;20438;-74
2022/08/07 02:06:01;;;;;;;6.32;5.22;;;11.30;99.90;;;;;;5066898;28;20080;-73
2022/08/07 02:08:29;;;;;;;8.07;5.15;;;11.40;99.90;;;;;;5065066;28;20463;-73
2022/08/07 02:10:58;;;;;;;5.90;4.95;;;11.50;99.90;;;;;;5066387;28;20051;-75
2022/08/07 02:13:26;;;;;;;6.28;4.78;;;11.30;99.90;;;;;;5063052;28;20368;-75
2022/08/07 02:15:53;;;;;;;4.90;4.28;;;11.40;99.90;;;;;;5065753;28;20044;-74
2022/08/07 02:18:20;;;;;;;6.95;5.07;;;11.40;99.90;;;;;;5061698;28;20056;-75
2022/08/07 02:20:50;;;;;;;7.50;6.75;;;11.50;99.90;;;;;;5067129;28;20091;-74
2022/08/07 02:23:17;;;;;;;7.10;5.63;;;11.30;99.90;;;;;;5065818;28;20124;-75
2022/08/07 02:25:44;;;;;;;7.80;6.47;;;11.30;99.90;;;;;;5066572;28;20048;-73
2022/08/07 02:28:11;;;;;;;9.27;7.38;;;11.40;99.90;;;;;;5063494;28;20391;-75
2022/08/07 02:30:38;;;;;;;9.85;7.20;;;11.30;99.90;;;;;;5067527;28;20040;-74
2022/08/07 02:33:05;;;;;;;8.32;6.95;;;11.30;99.90;;;;;;5064404;28;20115;-74
2022/08/07 02:35:33;;;;;;;10.68;7.82;;;11.30;99.90;;;;;;5067152;28;20047;-74
2022/08/07 02:38:01;;;;;;;8.32;6.47;;;11.30;99.90;;;;;;5063712;28;20105;-74
2022/08/07 02:40:29;;;;;;;9.55;7.35;;;11.20;99.90;;;;;;5062821;28;20047;-74
2022/08/07 02:42:56;;;;;;;8.65;6.60;;;11.10;99.90;;;;;;5067190;28;20392;-74
2022/08/07 02:45:25;;;;;;;8.48;7.22;;;11.20;99.90;;;;;;5065192;28;20389;-75
2022/08/07 02:47:51;;;;;;;9.82;7.22;;;11.10;99.90;;;;;;5061631;28;20052;-75
2022/08/07 02:50:17;;;;;;;10.35;7.68;;;11.20;99.90;;;;;;5061558;28;21047;-74
2022/08/07 02:53:08;;;;;;;9.93;8.10;;;11.20;99.90;;;;;;5062223;28;20055;-74
2022/08/07 02:55:38;;;;;;;8.98;6.82;;;11.40;99.90;;;;;;5065130;28;20049;-73
2022/08/07 02:58:09;;;;;;;7.65;6.70;;;11.30;99.90;;;;;;5044750;28;20500;-74
2022/08/07 03:00:36;;;;;;;9.65;6.72;;;11.20;99.90;;;;;;5063867;28;20076;-74
2022/08/07 03:03:06;;;;;;;8.73;7.82;;;11.20;99.90;;;;;;5066852;28;20036;-74
2022/08/07 03:05:32;;;;;;;8.13;6.60;;;11.20;99.90;;;;;;5064298;28;20044;-75
2022/08/07 03:07:58;;;;;;;13.00;7.57;;;11.10;99.90;;;;;;5060800;28;20114;-73
2022/08/07 03:10:24;;;;;;;12.95;7.20;;;11.10;99.90;;;;;;5059798;28;20090;-73
2022/08/07 03:12:50;;;;;;;9.38;7.57;;;11.10;99.90;;;;;;5064125;28;20517;-73
2022/08/07 03:15:16;;;;;;;11.68;7.95;;;11.00;99.90;;;;;;5062533;28;20483;-73
2022/08/07 03:17:43;;;;;;;9.43;7.85;;;11.00;99.90;;;;;;5062574;28;20048;-75
2022/08/07 03:20:09;;;;;;;10.05;8.27;;;11.10;99.90;;;;;;5061428;28;20118;-73
2022/08/07 03:22:37;;;;;;;12.02;8.15;;;11.20;99.90;;;;;;5063787;28;20072;-73
2022/08/07 03:25:03;;;;;;;11.82;8.23;;;11.20;99.90;;;;;;5065714;28;20131;-74
2022/08/07 03:27:29;;;;;;;9.75;7.13;;;11.10;99.90;;;;;;5064261;28;20537;-75
2022/08/07 03:29:56;;;;;;;9.07;7.95;;;11.10;99.90;;;;;;5059375;28;20048;-74
2022/08/07 03:32:25;;;;;;;10.70;7.65;;;11.10;99.90;;;;;;5062177;28;20046;-74
2022/08/07 03:34:56;;;;;;;10.35;7.10;;;11.20;99.90;;;;;;5064624;28;20048;-74
2022/08/07 03:37:23;;;;;;;9.43;7.43;;;11.10;99.90;;;;;;5064599;28;20321;-74
2022/08/07 03:39:49;;;;;;;12.20;7.75;;;11.10;99.90;;;;;;5066531;28;20045;-73
2022/08/07 03:42:17;;;;;;;10.02;8.25;;;11.20;99.90;;;;;;5064008;28;20657;-74
2022/08/07 03:44:44;;;;;;;8.25;7.40;;;11.10;99.90;;;;;;5077129;28;20040;-74
2022/08/07 03:47:11;;;;;;;8.27;6.43;;;11.10;99.90;;;;;;5059761;28;20064;-74
2022/08/07 03:49:37;;;;;;;8.07;7.20;;;11.10;99.90;;;;;;5065579;28;20059;-73
2022/08/07 03:52:04;;;;;;;7.80;6.65;;;11.10;99.90;;;;;;5065281;28;20032;-74
2022/08/07 03:54:30;;;;;;;8.15;7.10;;;11.10;99.90;;;;;;5065092;28;20044;-74
2022/08/07 03:56:56;;;;;;;11.30;7.05;;;11.10;99.90;;;;;;5060200;28;20044;-72
2022/08/07 03:59:24;;;;;;;9.77;6.05;;;11.10;99.90;;;;;;5062478;28;20047;-74
2022/08/07 04:01:53;;;;;;;8.80;5.63;;;11.10;99.90;;;;;;5064888;28;20495;-73
2022/08/07 04:04:19;;;;;;;7.80;6.55;;;11.00;99.90;;;;;;5065361;28;20037;-72
2022/08/07 04:06:45;;;;;;;11.63;6.47;;;11.00;99.90;;;;;;5063756;28;20036;-75
2022/08/07 04:09:12;;;;;;;7.55;6.32;;;11.10;99.90;;;;;;5061360;28;20053;-73
2022/08/07 04:11:38;;;;;;;9.70;7.95;;;11.00;99.90;;;;;;5065250;28;20041;-73
2022/08/07 04:14:05;;;;;;;8.27;6.80;;;11.00;99.90;;;;;;5061467;28;20047;-73
2022/08/07 04:16:31;;;;;;;9.82;8.55;;;11.00;99.90;;;;;;5063168;28;20052;-73
2022/08/07 04:18:57;;;;;;;11.02;8.20;;;11.00;99.90;;;;;;5063257;28;20044;-72
2022/08/07 04:21:23;;;;;;;8.65;6.68;;;10.90;99.90;;;;;;5062984;28;20044;-73
2022/08/07 04:23:50;;;;;;;8.70;7.78;;;10.90;99.90;;;;;;5065579;28;20044;-74
2022/08/07 04:26:15;;;;;;;11.68;7.40;;;10.90;99.90;;;;;;5064045;28;20048;-74
2022/08/07 04:28:41;;;;;;;7.90;6.47;;;10.90;99.90;;;;;;5062782;28;20040;-74
2022/08/07 04:31:09;;;;;;;11.70;8.00;;;10.90;99.90;;;;;;5065021;28;20119;-74
2022/08/07 04:33:39;;;;;;;9.15;7.13;;;10.90;99.90;;;;;;5063350;28;20486;-74
2022/08/07 04:36:07;;;;;;;10.30;7.78;;;10.90;99.90;;;;;;5064814;28;20044;-74
2022/08/07 04:38:34;;;;;;;7.72;6.55;;;10.90;99.90;;;;;;5061480;28;20052;-74
2022/08/07 04:41:00;;;;;;;8.30;7.00;;;11.00;99.90;;;;;;5063358;28;20135;-74
2022/08/07 04:43:29;;;;;;;8.57;6.97;;;11.00;99.90;;;;;;5064982;28;20889;-74
2022/08/07 04:46:22;;;;;;;9.88;7.30;;;11.10;99.90;;;;;;5065961;28;20040;-73
2022/08/07 04:48:50;;;;;;;12.30;6.82;;;11.10;99.90;;;;;;5058111;28;20055;-74
2022/08/07 04:51:31;;;;;;;13.77;9.52;;;11.30;99.90;;;;;;5067180;28;20080;-74
2022/08/07 04:54:08;;;;;;;7.80;6.32;;;11.40;99.90;;;;;;5068418;28;20405;-74
2022/08/07 04:56:45;;;;;;;7.38;6.38;;;11.50;99.90;;;;;;5067432;28;20037;-74
2022/08/07 04:59:25;;;;;;;8.45;6.57;;;11.60;99.90;;;;;;5067190;28;20740;-74
2022/08/07 05:01:59;;;;;;;13.40;8.10;;;11.70;99.90;;;;;;5059479;28;20056;-74
2022/08/07 05:04:31;;;;;;;9.20;6.63;;;11.70;99.90;;;;;;5067666;28;20466;-73
2022/08/07 05:07:20;;;;;;;8.95;6.72;;;11.70;99.90;;;;;;5067315;28;20087;-74
2022/08/07 05:09:55;;;;;;;9.30;7.07;;;11.80;99.90;;;;;;5064185;28;20577;-72
2022/08/07 05:12:37;;;;;;;8.50;6.40;;;11.80;99.90;;;;;;5068067;28;20123;-74
2022/08/07 05:15:16;;;;;;;8.50;6.88;;;11.90;99.90;;;;;;5066813;28;20376;-75
2022/08/07 05:17:49;;;;;;;7.82;6.03;;;11.90;99.90;;;;;;5067616;28;20108;-72
2022/08/07 05:20:20;;;;;;;9.73;7.03;;;12.00;99.90;;;;;;5066327;28;20048;-73
2022/08/07 05:22:50;;;;;;;8.73;7.50;;;12.10;99.90;;;;;;5066319;28;20057;-73
2022/08/07 05:25:19;;;;;;;11.32;7.40;;;12.10;99.90;;;;;;5065563;28;20112;-73
2022/08/07 05:27:46;;;;;;;6.47;5.57;;;12.20;99.90;;;;;;5065336;28;20101;-73
2022/08/07 05:30:13;;;;;;;7.90;6.60;;;12.30;99.90;;;;;;5068834;28;20049;-73
2022/08/07 05:32:40;;;;;;;10.82;8.25;;;12.30;99.90;;;;;;5065491;28;20041;-74
2022/08/07 05:35:09;;;;;;;13.27;7.68;;;12.40;99.90;;;;;;5067267;28;20033;-73
2022/08/07 05:37:35;;;;;;;10.85;6.20;;;12.50;99.90;;;;;;5063894;28;20041;-73
2022/08/07 05:40:01;;;;;;;8.18;6.45;;;12.60;99.90;;;;;;5068101;28;20048;-73
2022/08/07 05:42:27;;;;;;;8.43;6.40;;;12.60;99.90;;;;;;5066506;28;20049;-74
2022/08/07 05:44:54;;;;;;;12.93;6.97;;;12.70;99.90;;;;;;5065933;28;20043;-74
2022/08/07 05:47:21;;;;;;;8.70;6.30;;;12.80;99.90;;;;;;5079964;28;20454;-75
2022/08/07 05:49:49;;;;;;;10.63;6.60;;;12.90;99.90;;;;;;5057674;28;20052;-74
2022/08/07 05:52:15;;;;;;;10.13;5.55;;;12.90;99.90;;;;;;5066641;28;20037;-74
2022/08/07 05:54:41;;;;;;;13.73;5.82;;;13.00;99.90;;;;;;5064698;28;20056;-73
2022/08/07 05:57:08;;;;;;;6.15;5.50;;;13.10;99.90;;;;;;5062440;28;20117;-78
2022/08/07 05:59:37;;;;;;;7.15;5.47;;;13.10;99.90;;;;;;5065377;28;20073;-75
2022/08/07 06:02:06;;;;;;;7.50;6.30;;;13.20;99.90;;;;;;5067904;28;20044;-77
2022/08/07 06:04:36;;;;;;;10.65;6.25;;;13.30;99.90;;;;;;5064772;28;20055;-77
2022/08/07 06:07:04;;;;;;;6.80;5.85;;;13.40;99.90;;;;;;5066121;28;20063;-78
2022/08/07 06:09:31;;;;;;;7.65;5.60;;;13.50;99.90;;;;;;5063300;28;20041;-77
2022/08/07 06:11:58;;;;;;;13.85;6.93;;;13.60;99.90;;;;;;5066072;28;20200;-77
2022/08/07 06:14:23;;;;;;;7.60;5.20;;;13.70;99.90;;;;;;5063896;28;20041;-78
2022/08/07 06:16:50;;;;;;;8.23;6.35;;;13.70;99.90;;;;;;5063678;28;20102;-77
2022/08/07 06:19:17;;;;;;;7.00;6.18;;;13.80;99.90;;;;;;5065041;28;20047;-77
2022/08/07 06:21:45;;;;;;;6.43;5.57;;;13.90;99.90;;;;;;5064854;28;20108;-77
2022/08/07 06:24:12;;;;;;;7.78;5.68;;;14.00;99.90;;;;;;5054680;28;20147;-76
2022/08/07 06:26:41;;;;;;;8.48;6.40;;;14.10;99.90;;;;;;5065696;28;20056;-76
2022/08/07 06:29:08;;;;;;;9.97;5.90;;;14.20;99.90;;;;;;5065688;28;20482;-77
2022/08/07 06:31:34;;;;;;;7.25;5.60;;;14.30;99.90;;;;;;5067134;28;20040;-77
2022/08/07 06:34:00;;;;;;;10.80;6.55;;;14.30;99.90;;;;;;5068097;28;20052;-76
2022/08/07 06:36:25;;;;;;;6.35;5.28;;;14.40;99.90;;;;;;5065535;28;20418;-76
2022/08/07 06:38:53;;;;;;;6.93;5.72;;;14.50;99.90;;;;;;5066829;28;20041;-77
2022/08/07 06:41:33;;;;;;;8.55;5.15;;;14.60;99.90;;;;;;5067300;28;20060;-73
2022/08/07 06:44:01;;;;;;;8.32;5.70;;;14.60;99.90;;;;;;5061227;28;20125;-76
2022/08/07 06:46:26;;;;;;;7.85;5.68;;;14.70;99.90;;;;;;5069449;28;20109;-79
2022/08/07 06:48:52;;;;;;;6.80;5.47;;;14.80;99.90;;;;;;5077531;28;20052;-76
2022/08/07 06:51:26;;;;;;;8.70;5.40;;;14.90;99.90;;;;;;5065492;28;20110;-79
2022/08/07 06:53:53;;;;;;;6.57;4.40;;;15.00;99.90;;;;;;5065004;28;20048;-77
2022/08/07 06:56:38;;;;;;;6.82;4.13;;;15.10;99.90;;;;;;5063870;28;20040;-78
2022/08/07 06:59:09;;;;;;;7.90;5.65;;;15.30;99.90;;;;;;5065675;28;20433;-78
2022/08/07 07:01:36;;;;;;;6.85;4.15;;;15.40;99.90;;;;;;5064725;28;20093;-78
2022/08/07 07:04:04;;;;;;;4.90;3.97;;;15.50;99.90;;;;;;5065650;28;20509;-76
2022/08/07 07:06:31;;;;;;;6.50;3.85;;;15.70;99.90;;;;;;5063637;28;20036;-77
2022/08/07 07:09:16;;;;;;;6.82;5.03;;;15.70;99.90;;;;;;5058440;28;20067;-78
2022/08/07 07:11:56;;;;;;;4.43;4.00;;;15.80;99.90;;;;;;5064672;28;20036;-80
2022/08/07 07:14:24;;;;;;;3.85;3.42;;;16.90;99.90;;;;;;5064338;28;20036;-77
2022/08/07 07:16:53;;;;;;;5.80;3.10;;;19.00;99.90;;;;;;5066234;28;20449;-79
2022/08/07 07:19:24;;;;;;;5.78;3.35;;;19.90;99.90;;;;;;5063346;28;20090;-72
2022/08/07 07:21:51;;;;;;;2.95;2.45;;;20.40;99.90;;;;;;5064986;28;20124;-78
2022/08/07 07:24:17;;;;;;;2.80;1.80;;;21.20;99.90;;;;;;5063022;28;20068;-77
2022/08/07 07:26:45;;;;;;;3.67;1.77;;;21.40;99.90;;;;;;5063791;28;20197;-79
2022/08/07 07:29:13;;;;;;;3.25;2.15;;;21.70;99.90;;;;;;5058915;28;20430;-78
2022/08/07 07:31:45;;;;;;;5.80;2.00;;;21.80;99.90;;;;;;5063442;28;20555;-77
2022/08/07 07:34:15;;;;;;;3.08;2.00;;;21.60;99.90;;;;;;5062091;28;20074;-78
2022/08/07 07:36:42;;;;;;;;;;;21.20;99.90;;;;;;5064179;28;20729;-78
2022/08/07 07:39:10;;;;;;;2.45;2.00;;;20.30;99.90;;;;;;5064356;28;20417;-77
2022/08/07 07:41:38;;;;;;;2.47;1.70;;;19.20;99.90;;;;;;5063101;28;20049;-78
2022/08/07 07:44:06;;;;;;;2.70;1.35;;;19.20;99.90;;;;;;5048681;28;20483;-79
2022/08/07 07:46:36;;;;;;;3.58;2.13;;;19.20;99.90;;;;;;5065158;28;20127;-79
2022/08/07 07:49:03;;;;;;;4.00;2.33;;;19.10;99.90;;;;;;5060991;28;20457;-78
2022/08/07 07:51:31;;;;;;;5.47;3.10;;;18.80;99.90;;;;;;5063415;28;20044;-79
2022/08/07 07:53:58;;;;;;;3.35;2.55;;;18.80;99.90;;;;;;5063964;28;20076;-79
2022/08/07 07:56:25;;;;;;;4.40;3.15;;;19.00;99.90;;;;;;5063333;28;20502;-78
2022/08/07 07:58:53;;;;;;;4.75;3.35;;;19.00;99.90;;;;;;5062359;28;20567;-78
2022/08/07 08:01:20;;;;;;;6.93;3.97;;;19.10;99.90;;;;;;5064393;28;20082;-70
2022/08/07 08:03:48;;;;;;;3.17;2.88;;;18.90;99.90;;;;;;5063629;28;20073;-79
2022/08/07 08:06:14;;;;;;;5.43;3.40;;;18.90;99.90;;;;;;5060812;28;20059;-79
2022/08/07 08:08:42;;;;;;;3.90;2.97;;;19.10;99.90;;;;;;5060798;28;20424;-78
2022/08/07 08:11:10;;;;;;;6.28;3.50;;;19.30;99.90;;;;;;5061060;28;20678;-77
2022/08/07 08:13:43;;;;;;;4.18;3.13;;;19.30;99.90;;;;;;5063457;28;20048;-79
2022/08/07 08:16:17;;;;;;;4.25;3.40;;;19.30;99.90;;;;;;5058382;28;20057;-78
2022/08/07 08:18:44;;;;;;;5.03;3.67;;;19.30;99.90;;;;;;5052348;28;20037;-78
2022/08/07 08:27:04;;;;;;;5.47;3.20;;;18.70;99.90;;;;;;5068378;28;20130;-79
2022/08/07 08:29:35;;;;;;;6.35;4.13;;;18.50;99.90;;;;;;5063603;28;20120;-81
2022/08/07 08:32:03;;;;;;;5.45;3.78;;;19.00;99.90;;;;;;5067800;28;20047;-78
2022/08/07 08:34:31;;;;;;;5.57;2.75;;;19.10;99.90;;;;;;5068909;28;20418;-81
2022/08/07 08:36:58;;;;;;;3.40;2.78;;;18.70;99.90;;;;;;5066695;28;20088;-82
2022/08/07 08:39:26;;;;;;;6.50;2.85;;;18.80;99.90;;;;;;5068357;28;20047;-82
2022/08/07 08:41:58;;;;;;;3.25;2.95;;;19.20;99.90;;;;;;5067079;28;20487;-81
2022/08/07 08:44:40;;;;;;;4.45;3.95;;;19.30;99.90;;;;;;5065901;28;20044;-79
2022/08/07 08:47:11;;;;;;;4.45;2.80;;;19.60;99.90;;;;;;5067846;28;20457;-79
2022/08/07 08:50:00;;;;;;;7.80;3.22;;;19.80;99.90;;;;;;5064974;28;20414;-78
2022/08/07 08:52:36;;;;;;;4.88;3.20;;;19.80;99.90;;;;;;5048869;28;20369;-79
2022/08/07 08:55:33;;;;;;;3.38;2.78;;;19.90;99.90;;;;;;5064299;28;20394;-79
2022/08/07 08:58:18;;;;;;;3.72;2.45;;;20.00;99.90;;;;;;5064634;28;20061;-79
2022/08/07 09:00:59;;;;;;;3.45;2.65;;;20.20;99.90;;;;;;5064513;28;20116;-78
2022/08/07 09:03:49;;;;;;;2.58;2.38;;;20.20;99.90;;;;;;5060351;28;20376;-81
2022/08/07 09:06:47;;;;;;;2.97;2.15;;;20.20;99.90;;;;;;5058437;28;20036;-81
2022/08/07 09:09:42;;;;;;;5.85;2.95;;;20.30;99.90;;;;;;5042013;28;20112;-79
2022/08/07 09:12:11;;;;;;;5.82;2.95;;;20.40;99.90;;;;;;5065419;28;20095;-82
2022/08/07 09:14:57;;;;;;;2.58;2.10;;;20.40;99.90;;;;;;5069123;28;20070;-82
2022/08/07 09:17:47;;;;;;;3.38;2.47;;;20.40;99.90;;;;;;5064355;28;20102;-82
2022/08/07 09:20:44;;;;;;;6.00;2.05;;;20.40;99.90;;;;;;5051790;28;20099;-82
2022/08/07 09:23:45;;;;;;;2.70;2.50;;;20.30;99.90;;;;;;5066643;28;20051;-81
2022/08/07 09:26:37;;;;;;;3.20;2.25;;;20.60;99.90;;;;;;5059239;28;20841;-80
2022/08/07 09:29:33;;;;;;;2.58;2.17;;;20.70;99.90;;;;;;5058496;28;20049;-82
2022/08/07 09:32:26;;;;;;;2.80;2.03;;;20.00;99.90;;;;;;5059973;28;20131;-81
2022/08/07 09:34:57;;;;;;;2.17;1.98;;;19.80;99.90;;;;;;5061357;28;20123;-84
2022/08/07 09:37:43;;;;;;;4.43;2.33;;;19.80;99.90;;;;;;5059135;28;20041;-81
2022/08/07 09:40:29;;;;;;;3.22;2.30;;;20.00;99.90;;;;;;5058075;28;20322;-82
2022/08/07 09:43:17;;;;;;;2.72;1.73;;;20.30;99.90;;;;;;5061544;28;20060;-78
2022/08/07 09:46:16;;;;;;;2.30;1.73;;;20.50;99.90;;;;;;5081448;28;20037;-82
2022/08/07 09:48:59;;;;;;;3.78;1.98;;;20.50;99.90;;;;;;5055524;28;20090;-81
2022/08/07 09:51:59;;;;;;;1.75;1.50;;;20.50;99.90;;;;;;5057669;28;20449;-81
2022/08/07 09:54:35;;;;;;;2.70;2.40;;;20.60;99.90;;;;;;5064681;28;20057;-82
2022/08/07 09:57:28;;;;;;;4.40;2.22;;;20.80;99.90;;;;;;5066223;28;20658;-81
2022/08/07 10:00:10;;;;;;;2.85;1.80;;;21.00;99.90;;;;;;5074168;28;20138;-83
2022/08/07 10:03:03;;;;;;;2.20;2.00;;;20.80;99.90;;;;;;5061750;28;20040;-80
2022/08/07 10:05:52;;;;;;;2.35;2.15;;;21.10;99.90;;;;;;5065743;28;20499;-81
2022/08/07 10:08:39;;;;;;;3.75;1.98;;;21.30;99.90;;;;;;5066092;28;20063;-82
2022/08/07 10:11:33;;;;;;;4.40;1.77;;;21.00;99.90;;;;;;5062315;28;20056;-80
2022/08/07 10:14:26;;;;;;;2.42;1.77;;;20.90;99.90;;;;;;5051484;28;20053;-81
2022/08/07 10:17:10;;;;;;;5.82;1.77;;;21.20;99.90;;;;;;5059100;28;20059;-77
2022/08/07 10:20:17;;;;;;;2.17;1.50;;;21.20;99.90;;;;;;5065481;28;20048;-80
2022/08/07 10:23:21;;;;;;;2.15;1.70;;;21.10;99.90;;;;;;5050549;28;20167;-81
2022/08/07 10:25:55;;;;;;;4.18;2.03;;;21.30;99.90;;;;;;5065711;28;20047;-80
2022/08/07 10:28:44;;;;;;;1.98;1.58;;;21.00;99.90;;;;;;5069228;28;20087;-80
2022/08/07 10:31:29;;;;;;;1.60;1.50;;;21.00;99.90;;;;;;5049409;28;20033;-78
2022/08/07 10:34:10;;;;;;;4.38;1.48;;;21.10;99.90;;;;;;5052399;28;20380;-80
2022/08/07 10:37:05;;;;;;;2.90;1.90;;;21.40;99.90;;;;;;5067953;28;20044;-78
2022/08/07 10:39:52;;;;;;;2.25;1.67;;;21.30;99.90;;;;;;5060647;28;20055;-81
2022/08/07 10:42:34;;;;;;;2.28;1.80;;;21.50;99.90;;;;;;5066317;28;20041;-81
2022/08/07 10:45:18;;;;;;;1.90;1.70;;;21.70;99.90;;;;;;5065367;28;20045;-81
2022/08/07 10:48:11;;;;;;;1.40;1.08;;;22.00;99.90;;;;;;5056869;28;20059;-81
2022/08/07 10:50:42;;;;;;;1.92;1.70;;;22.10;99.90;;;;;;5064540;28;20059;-81
2022/08/07 10:53:26;;;;;;;2.30;1.40;;;22.20;99.90;;;;;;5066861;28;20099;-82
2022/08/07 10:56:02;;;;;;;3.53;1.67;;;22.20;99.90;;;;;;5057832;28;20032;-82
2022/08/07 10:58:49;;;;;;;2.38;1.40;;;21.90;99.90;;;;;;5063036;28;20032;-82
2022/08/07 11:01:28;;;;;;;3.53;1.50;;;22.20;99.90;;;;;;5065794;28;20064;-81
2022/08/07 11:04:04;;;;;;;1.75;1.65;;;22.20;99.90;;;;;;5064349;28;20055;-83
2022/08/07 11:06:59;;;;;;;2.47;1.80;;;21.80;99.90;;;;;;5066257;28;20093;-84
2022/08/07 11:09:32;;;;;;;3.42;1.77;;;22.10;99.90;;;;;;5059543;28;20418;-83
2022/08/07 11:12:09;;;;;;;2.45;1.90;;;21.60;99.90;;;;;;5067877;28;20047;-84
2022/08/07 11:14:42;;;;;;;2.10;1.58;;;21.60;99.90;;;;;;5063724;28;20037;-85
2022/08/07 11:17:22;;;;;;;1.52;1.15;;;21.90;99.90;;;;;;5065365;28;20324;-81
2022/08/07 11:19:57;;;;;;;3.78;1.60;;;21.70;99.90;;;;;;5045923;28;20599;-80
2022/08/07 11:22:43;;;;;;;3.30;2.25;;;21.80;99.90;;;;;;5059991;28;20119;-82
2022/08/07 11:25:18;;;;;;;4.78;1.20;;;21.90;99.90;;;;;;5064650;28;20534;-79
2022/08/07 11:27:44;;;;;;;2.08;1.70;;;21.60;99.90;;;;;;5064435;28;20402;-82
2022/08/07 11:30:17;;;;;;;2.90;1.55;;;21.70;99.90;;;;;;5064235;28;20059;-82
2022/08/07 11:32:44;;;;;;;3.05;2.15;;;21.90;99.90;;;;;;5064480;28;20102;-83
2022/08/07 11:35:18;;;;;;;1.65;1.45;;;22.00;99.90;;;;;;5063053;28;20043;-81
2022/08/07 11:38:15;;;;;;;3.47;1.80;;;21.70;99.90;;;;;;5064964;28;20052;-83
2022/08/07 11:41:20;;;;;;;2.00;1.63;;;22.40;99.90;;;;;;5063783;28;20063;-82
2022/08/07 11:44:14;;;;;;;6.60;2.35;;;22.70;99.90;;;;;;5063632;28;20564;-81
2022/08/07 11:46:52;;;;;;;2.28;1.98;;;22.90;99.90;;;;;;5065112;28;20060;-81
2022/08/07 11:49:46;;;;;;;3.40;1.77;;;23.10;99.90;;;;;;5066026;28;20052;-82
2022/08/07 11:52:38;;;;;;;4.93;2.10;;;22.60;99.90;;;;;;5065181;28;20426;-82
2022/08/07 11:55:29;;;;;;;3.05;2.15;;;22.30;99.90;;;;;;5060859;28;20051;-83
2022/08/07 11:58:10;;;;;;;2.28;2.08;;;21.90;99.90;;;;;;5064419;28;20609;-81
2022/08/07 12:00:53;;;;;;;6.43;2.17;;;21.80;99.90;;;;;;5063103;28;20044;-82
2022/08/07 12:03:38;;;;;;;2.90;1.90;;;21.80;99.90;;;;;;5063112;28;20101;-82
2022/08/07 12:06:12;;;;;;;2.75;2.00;;;21.90;99.90;;;;;;5064727;28;20132;-83
2022/08/07 12:09:07;;;;;;;2.17;1.83;;;21.90;99.90;;;;;;5077784;28;20040;-82
2022/08/07 12:11:41;;;;;;;2.25;1.80;;;22.20;99.90;;;;;;5073267;28;20056;-82
2022/08/07 12:14:13;;;;;;;6.15;1.95;;;22.30;99.90;;;;;;5068211;28;20421;-82
2022/08/07 12:17:09;;;;;;;4.25;2.28;;;22.30;99.90;;;;;;5065109;28;20067;-81
2022/08/07 12:19:59;;;;;;;2.80;1.92;;;22.20;99.90;;;;;;5063359;28;20181;-83
2022/08/07 12:22:39;;;;;;;3.30;2.80;;;21.90;99.90;;;;;;5066001;28;20041;-82
2022/08/07 12:28:10;;;;;;;3.78;2.45;;;22.60;99.90;;;;;;5065193;28;20131;-81
2022/08/07 12:30:39;;;;;;;3.63;2.30;;;22.60;99.90;;;;;;5065233;28;20048;-82
2022/08/07 12:33:11;;;;;;;4.05;2.38;;;22.80;99.90;;;;;;5062886;28;20801;-80
2022/08/07 12:35:39;;;;;;;5.47;2.80;;;22.80;99.90;;;;;;5061589;28;20048;-82
2022/08/07 12:38:07;;;;;;;3.78;2.03;;;22.90;99.90;;;;;;5065155;28;20043;-83
2022/08/07 12:40:36;;;;;;;2.25;2.05;;;22.90;99.90;;;;;;5065184;28;20463;-84
2022/08/07 12:43:04;;;;;;;4.28;2.00;;;22.30;99.90;;;;;;5063889;28;20048;-83
2022/08/07 12:45:51;;;;;;;5.25;2.60;;;21.90;99.90;;;;;;5065121;28;20056;-83
2022/08/07 12:48:40;;;;;;;3.90;2.20;;;21.60;99.90;;;;;;5061934;28;20474;-84
2022/08/07 12:51:15;;;;;;;2.38;1.65;;;21.90;99.90;;;;;;5053458;28;20082;-83
2022/08/07 12:54:03;;;;;;;3.40;1.83;;;22.10;99.90;;;;;;5057121;28;20518;-84
2022/08/07 12:56:40;;;;;;;4.55;1.90;;;22.40;99.90;;;;;;5047618;28;20043;-84
2022/08/07 12:59:10;;;;;;;5.55;3.03;;;22.50;99.90;;;;;;5063969;28;20125;-81
2022/08/07 13:01:42;;;;;;;3.67;1.90;;;22.90;99.90;;;;;;5064274;28;20045;-83
2022/08/07 13:04:35;;;;;;;4.95;1.85;;;22.60;99.90;;;;;;5064127;28;20415;-83
2022/08/07 13:07:14;;;;;;;2.78;1.60;;;22.10;99.90;;;;;;5065331;28;20318;-84
2022/08/07 13:10:10;;;;;;;2.78;1.23;;;21.70;99.90;;;;;;5067445;28;20048;-84
2022/08/07 13:12:52;;;;;;;1.73;1.02;;;21.60;99.90;;;;;;5068105;28;20445;-84
2022/08/07 13:15:46;;;;;;;4.15;1.30;;;22.00;99.90;;;;;;5068272;28;20041;-84
2022/08/07 13:18:38;;;;;;;1.83;1.33;;;22.30;99.90;;;;;;5065597;28;20059;-83
2022/08/07 13:21:08;;;;;;;4.55;1.40;;;22.40;99.90;;;;;;5054598;28;20071;-81
2022/08/07 13:23:55;;;;;;;2.05;1.27;;;22.80;99.90;;;;;;5065977;28;20052;-78
2022/08/07 13:26:38;;;;;;;2.13;0.88;;;23.20;99.90;;;;;;5058014;28;20043;-81
2022/08/07 13:29:28;;;;;;;1.02;0.80;;;23.50;99.90;;;;;;5056837;28;20037;-80